createdAt,value
2023-05-19T00:01:17.767Z,20.77
2023-05-19T00:03:55.162Z,28.17
2023-05-19T00:06:24.125Z,20.77
2023-05-19T00:08:56.475Z,20.20
2023-05-19T00:11:26.559Z,17.58
2023-05-19T00:13:54.298Z,21.35
2023-05-19T00:16:22.355Z,20.45
2023-05-19T00:18:49.616Z,20.17
2023-05-19T00:21:16.861Z,22.75
2023-05-19T00:23:44.009Z,23.08
2023-05-19T00:26:11.254Z,26.02
2023-05-19T00:28:39.701Z,25.50
2023-05-19T00:31:06.988Z,30.08
2023-05-19T00:33:34.327Z,21.85
2023-05-19T00:36:03.398Z,28.77
2023-05-19T00:38:31.086Z,20.95
2023-05-19T00:40:58.123Z,31.15
2023-05-19T00:43:25.361Z,20.67
2023-05-19T00:45:53.681Z,20.35
2023-05-19T00:48:21.131Z,20.75
2023-05-19T00:50:48.548Z,18.30
2023-05-19T00:53:18.575Z,29.33
2023-05-19T00:55:46.349Z,24.75
2023-05-19T00:58:14.857Z,15.57
2023-05-19T01:00:42.769Z,24.23
2023-05-19T01:03:11.715Z,36.97
2023-05-19T01:05:41.707Z,29.83
2023-05-19T01:08:09.195Z,21.70
2023-05-19T01:10:36.907Z,20.73
2023-05-19T01:13:05.388Z,26.45
2023-05-19T01:15:36.397Z,18.88
2023-05-19T01:18:11.282Z,21.20
2023-05-19T01:20:46.487Z,22.88
2023-05-19T01:23:27.574Z,25.02
2023-05-19T01:26:26.071Z,34.40
2023-05-19T01:29:23.328Z,30.98
2023-05-19T01:31:55.041Z,29.27
2023-05-19T01:34:23.858Z,23.95
2023-05-19T01:36:52.277Z,27.42
2023-05-19T01:39:20.375Z,22.13
2023-05-19T01:41:48.073Z,27.55
2023-05-19T01:44:16.174Z,26.48
2023-05-19T01:46:43.870Z,25.55
2023-05-19T01:49:13.668Z,21.90
2023-05-19T01:51:41.477Z,21.15
2023-05-19T01:54:08.413Z,23.27
2023-05-19T01:56:45.158Z,24.80
2023-05-19T01:59:23.299Z,21.98
2023-05-19T02:01:54.075Z,21.65
2023-05-19T02:04:31.609Z,23.65
2023-05-19T02:07:03.875Z,28.23
2023-05-19T02:09:52.286Z,26.77
2023-05-19T02:12:23.567Z,35.83
2023-05-19T02:14:58.837Z,21.50
2023-05-19T02:17:29.434Z,27.35
2023-05-19T02:19:57.668Z,19.58
2023-05-19T02:22:24.715Z,23.73
2023-05-19T02:24:51.924Z,25.98
2023-05-19T02:27:18.991Z,28.10
2023-05-19T02:29:46.095Z,28.88
2023-05-19T02:32:13.288Z,23.52
2023-05-19T02:34:42.295Z,29.95
2023-05-19T02:37:10.615Z,25.70
2023-05-19T02:39:37.452Z,26.60
2023-05-19T02:42:04.870Z,31.70
2023-05-19T02:44:31.745Z,25.70
2023-05-19T02:46:58.595Z,27.70
2023-05-19T02:49:25.448Z,23.85
2023-05-19T02:51:53.016Z,21.13
2023-05-19T02:54:21.270Z,25.88
2023-05-19T02:56:48.134Z,25.85
2023-05-19T02:59:15.045Z,22.63
2023-05-19T03:01:42.086Z,31.27
2023-05-19T03:04:09.093Z,33.70
2023-05-19T03:06:36.406Z,27.80
2023-05-19T03:09:03.735Z,27.80
2023-05-19T03:11:32.040Z,31.67
2023-05-19T03:13:58.888Z,24.48
2023-05-19T03:16:25.838Z,36.63
2023-05-19T03:18:53.055Z,25.63
2023-05-19T03:21:19.985Z,25.92
2023-05-19T03:23:47.339Z,27.52
2023-05-19T03:26:14.250Z,40.28
2023-05-19T03:28:42.558Z,34.58
2023-05-19T03:31:09.492Z,34.72
2023-05-19T03:33:36.409Z,28.98
2023-05-19T03:36:04.162Z,34.55
2023-05-19T03:38:31.044Z,35.58
2023-05-19T03:40:57.950Z,30.02
2023-05-19T03:43:24.918Z,40.92
2023-05-19T03:45:53.690Z,32.80
2023-05-19T03:48:21.378Z,30.00
2023-05-19T03:50:48.648Z,27.00
2023-05-19T03:53:15.767Z,29.17
2023-05-19T03:55:42.716Z,32.00
2023-05-19T03:58:10.698Z,34.55
2023-05-19T04:00:38.050Z,26.20
2023-05-19T04:03:06.468Z,42.17
2023-05-19T04:05:33.465Z,28.92
2023-05-19T04:08:00.329Z,28.40
2023-05-19T04:10:27.410Z,40.13
2023-05-19T04:12:54.288Z,28.63
2023-05-19T04:15:21.499Z,40.47
2023-05-19T04:17:48.398Z,29.35
2023-05-19T04:20:16.714Z,33.85
2023-05-19T04:22:43.571Z,28.75
2023-05-19T04:25:10.564Z,32.55
2023-05-19T04:27:38.988Z,31.15
2023-05-19T04:30:06.947Z,32.30
2023-05-19T04:32:33.890Z,33.28
2023-05-19T04:35:00.800Z,28.05
2023-05-19T04:37:30.007Z,30.70
2023-05-19T04:39:57.239Z,25.45
2023-05-19T04:42:26.269Z,25.48
2023-05-19T04:44:53.249Z,31.27
2023-05-19T04:47:21.642Z,34.10
2023-05-19T04:49:48.671Z,29.80
2023-05-19T04:52:15.951Z,35.55
2023-05-19T04:54:44.344Z,31.20
2023-05-19T04:57:11.227Z,32.35
2023-05-19T04:59:38.068Z,24.23
2023-05-19T05:02:05.070Z,36.78
2023-05-19T05:04:32.569Z,37.78
2023-05-19T05:06:59.435Z,25.15
2023-05-19T05:09:26.357Z,34.00
2023-05-19T05:11:55.426Z,29.42
2023-05-19T05:14:22.901Z,30.08
2023-05-19T05:16:50.826Z,30.60
2023-05-19T05:19:18.369Z,32.38
2023-05-19T05:21:45.955Z,28.70
2023-05-19T05:24:13.883Z,32.00
2023-05-19T05:26:41.457Z,45.20
2023-05-19T05:29:10.403Z,28.50
2023-05-19T05:31:37.958Z,25.60
2023-05-19T05:34:04.834Z,26.40
2023-05-19T05:36:31.995Z,21.90
2023-05-19T05:38:59.649Z,24.77
2023-05-19T05:41:27.471Z,18.40
2023-05-19T05:43:54.519Z,19.70
2023-05-19T05:46:22.906Z,19.55
2023-05-19T05:48:50.462Z,16.83
2023-05-19T05:51:17.902Z,14.20
2023-05-19T05:53:48.036Z,22.65
2023-05-19T05:56:15.569Z,17.17
2023-05-19T05:58:42.560Z,16.13
2023-05-19T06:01:11.296Z,13.40
2023-05-19T06:03:41.627Z,14.10
2023-05-19T06:06:08.609Z,24.00
2023-05-19T06:08:35.604Z,14.13
2023-05-19T06:11:08.392Z,13.73
2023-05-19T06:13:36.059Z,14.93
2023-05-19T06:16:03.223Z,15.43
2023-05-19T06:18:30.115Z,13.68
2023-05-19T06:20:58.895Z,15.57
2023-05-19T06:23:27.014Z,17.77
2023-05-19T06:25:53.896Z,12.18
2023-05-19T06:28:21.012Z,10.98
2023-05-19T06:30:48.062Z,12.60
2023-05-19T06:33:14.973Z,8.85
2023-05-19T06:35:41.985Z,10.90
2023-05-19T06:38:10.307Z,9.35
2023-05-19T06:40:37.236Z,15.25
2023-05-19T06:43:04.919Z,9.63
2023-05-19T06:45:31.926Z,13.15
2023-05-19T06:47:58.914Z,10.52
2023-05-19T06:50:26.334Z,15.60
2023-05-19T06:52:53.297Z,9.20
2023-05-19T06:55:21.772Z,11.98
2023-05-19T06:57:48.694Z,12.40
2023-05-19T07:00:18.811Z,12.40
2023-05-19T07:02:47.571Z,15.32
2023-05-19T07:05:14.887Z,13.50
2023-05-19T07:07:42.335Z,14.48
2023-05-19T07:10:10.210Z,12.60
2023-05-19T07:12:38.502Z,13.98
2023-05-19T07:15:06.427Z,11.75
2023-05-19T07:17:33.390Z,13.50
2023-05-19T07:20:01.667Z,9.63
2023-05-19T07:22:28.655Z,14.20
2023-05-19T07:24:57.169Z,13.95
2023-05-19T07:27:24.059Z,12.77
2023-05-19T07:29:52.292Z,14.40
2023-05-19T07:32:19.291Z,13.68
2023-05-19T07:34:46.240Z,17.63
2023-05-19T07:37:13.108Z,30.50
2023-05-19T07:39:40.034Z,15.05
2023-05-19T07:42:06.918Z,15.40
2023-05-19T07:44:34.738Z,12.75
2023-05-19T07:47:03.080Z,14.02
2023-05-19T07:49:30.201Z,10.00
2023-05-19T07:51:57.506Z,9.40
2023-05-19T07:54:24.363Z,12.43
2023-05-19T07:56:51.297Z,11.75
2023-05-19T07:59:18.272Z,12.50
2023-05-19T08:01:45.212Z,13.43
2023-05-19T08:04:14.166Z,13.93
2023-05-19T08:06:42.896Z,13.80
2023-05-19T08:09:09.874Z,14.50
2023-05-19T08:11:37.124Z,15.70
2023-05-19T08:14:04.059Z,12.98
2023-05-19T08:16:31.126Z,10.82
2023-05-19T08:18:58.242Z,10.00
2023-05-19T08:21:26.553Z,11.60
2023-05-19T08:23:53.546Z,12.85
2023-05-19T08:26:21.582Z,10.82
2023-05-19T08:28:48.663Z,9.23
2023-05-19T08:31:15.649Z,15.35
2023-05-19T08:33:42.618Z,16.38
2023-05-19T08:36:09.643Z,11.52
2023-05-19T08:38:37.901Z,9.95
2023-05-19T08:41:05.961Z,14.57
2023-05-19T08:43:33.221Z,18.52
2023-05-19T08:46:00.771Z,10.77
2023-05-19T08:48:29.444Z,14.15
2023-05-19T08:51:06.505Z,21.13
2023-05-19T08:53:40.605Z,12.65
2023-05-19T08:56:12.127Z,16.02
2023-05-19T08:58:40.405Z,15.95
2023-05-19T09:01:07.850Z,11.02
2023-05-19T09:03:39.275Z,9.57
2023-05-19T09:06:08.575Z,14.80
2023-05-19T09:08:37.524Z,15.35
2023-05-19T09:11:06.087Z,13.93
2023-05-19T09:13:33.027Z,13.55
2023-05-19T09:16:00.109Z,15.05
2023-05-19T09:18:27.344Z,13.75
2023-05-19T09:21:00.661Z,14.05
2023-05-19T09:23:29.660Z,12.27
2023-05-19T09:25:57.555Z,15.23
2023-05-19T09:28:28.006Z,14.05
2023-05-19T09:31:00.215Z,10.30
2023-05-19T09:33:27.174Z,13.25
2023-05-19T09:35:54.707Z,8.30
2023-05-19T09:38:21.613Z,8.60
2023-05-19T09:40:48.815Z,14.50
2023-05-19T09:43:16.242Z,11.25
2023-05-19T09:45:44.613Z,13.93
2023-05-19T09:48:11.723Z,12.65
2023-05-19T09:50:38.658Z,13.82
2023-05-19T09:53:05.592Z,9.10
2023-05-19T09:55:33.716Z,14.82
2023-05-19T09:58:05.098Z,12.57
2023-05-19T10:00:33.067Z,12.32
2023-05-19T10:03:05.341Z,19.90
2023-05-19T10:05:33.761Z,13.70
2023-05-19T10:08:02.620Z,10.50
2023-05-19T10:10:31.299Z,9.63
2023-05-19T10:13:00.188Z,14.95
2023-05-19T10:15:27.271Z,8.52
2023-05-19T10:17:55.170Z,18.58
2023-05-19T10:20:23.546Z,16.38
2023-05-19T10:22:50.464Z,9.27
2023-05-19T10:25:19.906Z,12.23
2023-05-19T10:27:52.216Z,15.88
2023-05-19T10:30:26.109Z,12.63
2023-05-19T10:32:54.860Z,12.20
2023-05-19T10:35:59.770Z,23.38
2023-05-19T10:38:33.741Z,11.43
2023-05-19T10:41:09.050Z,11.27
2023-05-19T10:43:55.119Z,14.38
2023-05-19T10:46:25.520Z,9.75
2023-05-19T10:48:52.550Z,10.50
2023-05-19T10:51:20.981Z,11.75
2023-05-19T10:53:49.984Z,10.27
2023-05-19T10:56:31.157Z,13.07
2023-05-19T10:58:58.069Z,11.60
2023-05-19T11:01:31.591Z,11.82
2023-05-19T11:04:04.324Z,8.02
2023-05-19T11:06:34.218Z,20.58
2023-05-19T11:09:02.435Z,11.30
2023-05-19T11:11:45.437Z,11.27
2023-05-19T11:14:15.632Z,10.57
2023-05-19T11:16:43.325Z,7.75
2023-05-19T11:19:20.006Z,10.63
2023-05-19T11:21:52.761Z,13.85
2023-05-19T11:24:40.204Z,6.10
2023-05-19T11:27:31.531Z,8.52
2023-05-19T11:30:00.238Z,10.68
2023-05-19T11:32:28.931Z,5.82
2023-05-19T11:34:56.440Z,9.55
2023-05-19T11:37:24.891Z,7.18
2023-05-19T11:39:52.456Z,7.88
2023-05-19T11:42:19.475Z,13.30
2023-05-19T11:44:47.162Z,10.77
2023-05-19T11:47:14.762Z,7.65
2023-05-19T11:49:44.374Z,17.15
2023-05-19T11:52:11.523Z,6.60
2023-05-19T11:54:41.931Z,7.40
2023-05-19T11:57:10.583Z,13.95
2023-05-19T11:59:39.274Z,11.77
2023-05-19T12:02:17.663Z,11.82
2023-05-19T12:04:45.215Z,10.02
2023-05-19T12:07:20.204Z,10.52
2023-05-19T12:09:49.626Z,10.45
2023-05-19T12:12:18.784Z,13.52
2023-05-19T12:14:46.948Z,14.20
2023-05-19T12:17:21.518Z,8.80
2023-05-19T12:19:49.733Z,8.30
2023-05-19T12:22:18.447Z,8.27
2023-05-19T12:24:49.606Z,11.55
2023-05-19T12:27:20.130Z,8.30
2023-05-19T12:29:50.643Z,6.30
2023-05-19T12:32:17.584Z,9.68
2023-05-19T12:34:44.600Z,21.65
2023-05-19T12:37:11.788Z,6.13
2023-05-19T12:39:40.167Z,12.80
2023-05-19T12:42:09.627Z,10.32
2023-05-19T12:44:42.608Z,5.10
2023-05-19T12:47:09.488Z,12.38
2023-05-19T12:49:36.695Z,5.97
2023-05-19T12:52:07.204Z,8.75
2023-05-19T12:54:37.812Z,6.85
2023-05-19T12:57:06.714Z,7.18
2023-05-19T12:59:38.801Z,8.07
2023-05-19T13:02:07.568Z,9.35
2023-05-19T13:04:34.670Z,9.82
2023-05-19T13:07:01.831Z,7.70
2023-05-19T13:09:29.074Z,10.80
2023-05-19T13:11:56.079Z,8.32
2023-05-19T13:14:22.994Z,15.18
2023-05-19T13:16:49.912Z,8.50
2023-05-19T13:19:24.970Z,10.65
2023-05-19T13:21:52.590Z,16.23
2023-05-19T13:24:19.521Z,11.85
2023-05-19T13:26:46.530Z,7.82
2023-05-19T13:29:13.580Z,6.68
2023-05-19T13:31:40.724Z,7.18
2023-05-19T13:34:08.014Z,6.82
2023-05-19T13:36:36.599Z,10.05
2023-05-19T13:39:03.656Z,15.02
2023-05-19T13:41:30.555Z,10.23
2023-05-19T13:43:59.582Z,9.02
2023-05-19T13:46:40.895Z,11.73
2023-05-19T13:49:12.071Z,11.05
2023-05-19T13:51:42.862Z,11.05
2023-05-19T13:54:10.064Z,16.08
2023-05-19T13:56:37.018Z,8.93
2023-05-19T13:59:04.221Z,12.65
2023-05-19T14:01:31.301Z,10.48
2023-05-19T14:03:58.465Z,8.82
2023-05-19T14:06:25.466Z,12.32
2023-05-19T14:08:53.700Z,16.05
2023-05-19T14:11:21.683Z,9.73
2023-05-19T14:13:53.063Z,9.60
2023-05-19T14:16:22.100Z,13.85
2023-05-19T14:18:49.383Z,11.85
2023-05-19T14:21:16.378Z,11.00
2023-05-19T14:23:43.325Z,14.45
2023-05-19T14:26:11.684Z,12.50
2023-05-19T14:28:38.588Z,18.50
2023-05-19T14:31:06.295Z,14.90
2023-05-19T14:33:35.656Z,17.30
2023-05-19T14:36:02.936Z,13.43
2023-05-19T14:38:29.914Z,15.50
2023-05-19T14:40:56.913Z,15.20
2023-05-19T14:43:25.262Z,14.68
2023-05-19T14:45:52.219Z,16.98
2023-05-19T14:48:19.146Z,18.27
2023-05-19T14:50:48.337Z,18.15
2023-05-19T14:53:15.532Z,17.48
2023-05-19T14:55:42.455Z,22.90
2023-05-19T14:58:19.985Z,16.95
2023-05-19T15:00:57.831Z,18.38
2023-05-19T15:03:25.014Z,16.10
2023-05-19T15:05:52.149Z,13.60
2023-05-19T15:08:19.109Z,11.70
2023-05-19T15:10:48.772Z,21.15
2023-05-19T15:13:16.183Z,26.20
2023-05-19T15:15:43.078Z,19.35
2023-05-19T15:18:16.304Z,17.95
2023-05-19T15:20:43.950Z,13.85
2023-05-19T15:23:11.067Z,17.00
2023-05-19T15:25:38.068Z,18.33
2023-05-19T15:28:05.170Z,15.65
2023-05-19T15:30:32.064Z,16.85
2023-05-19T15:32:59.044Z,21.30
2023-05-19T15:35:27.647Z,14.02
2023-05-19T15:37:54.531Z,11.32
2023-05-19T15:40:21.495Z,16.52
2023-05-19T15:42:48.404Z,18.05
2023-05-19T15:45:15.295Z,15.18
2023-05-19T15:47:42.281Z,16.17
2023-05-19T15:50:10.010Z,17.70
2023-05-19T15:52:38.285Z,18.80
2023-05-19T15:55:06.166Z,20.92
2023-05-19T15:57:33.079Z,18.38
2023-05-19T16:00:00.041Z,13.07
2023-05-19T16:02:27.128Z,21.15
2023-05-19T16:04:54.163Z,17.38
2023-05-19T16:07:22.586Z,15.38
2023-05-19T16:09:51.071Z,17.88
2023-05-19T16:12:18.106Z,18.30
2023-05-19T16:14:44.987Z,15.18
2023-05-19T16:17:13.753Z,13.35
2023-05-19T16:19:40.747Z,14.63
2023-05-19T16:22:07.707Z,16.10
2023-05-19T16:24:34.649Z,17.33
2023-05-19T16:27:03.033Z,22.05
2023-05-19T16:29:29.839Z,16.73
2023-05-19T16:31:56.741Z,14.35
2023-05-19T16:34:23.850Z,11.75
2023-05-19T16:36:50.785Z,15.70
2023-05-19T16:39:17.682Z,17.33
2023-05-19T16:41:44.673Z,15.05
2023-05-19T16:44:14.688Z,10.27
2023-05-19T16:46:41.694Z,19.73
2023-05-19T16:49:09.078Z,12.82
2023-05-19T16:51:35.952Z,15.65
2023-05-19T16:54:02.911Z,16.08
2023-05-19T16:56:44.810Z,14.60
2023-05-19T16:59:13.152Z,17.17
2023-05-19T17:01:40.059Z,40.78
2023-05-19T17:04:06.961Z,17.58
2023-05-19T17:06:33.936Z,15.20
2023-05-19T17:09:00.901Z,15.30
2023-05-19T17:11:28.090Z,13.70
2023-05-19T17:13:54.991Z,24.90
2023-05-19T17:16:23.901Z,10.20
2023-05-19T17:18:51.464Z,12.68
2023-05-19T17:21:18.520Z,13.30
2023-05-19T17:23:45.642Z,14.90
2023-05-19T17:26:12.548Z,17.67
2023-05-19T17:28:39.478Z,17.02
2023-05-19T17:31:10.130Z,16.17
2023-05-19T17:33:38.504Z,10.27
2023-05-19T17:36:06.605Z,13.60
2023-05-19T17:38:33.536Z,15.38
2023-05-19T17:41:00.997Z,10.68
2023-05-19T17:43:28.370Z,11.75
2023-05-19T17:45:55.351Z,16.38
2023-05-19T17:48:22.307Z,21.48
2023-05-19T17:50:50.600Z,15.77
2023-05-19T17:53:18.181Z,16.40
2023-05-19T17:55:50.368Z,12.98
2023-05-19T17:58:17.838Z,8.40
2023-05-19T18:00:45.862Z,13.35
2023-05-19T18:03:13.414Z,17.05
2023-05-19T18:05:43.345Z,10.65
2023-05-19T18:08:13.605Z,9.13
2023-05-19T18:10:41.884Z,24.85
2023-05-19T18:13:10.538Z,20.38
2023-05-19T18:15:37.661Z,11.82
2023-05-19T18:18:07.484Z,16.48
2023-05-19T18:20:35.043Z,14.95
2023-05-19T18:23:02.902Z,14.18
2023-05-19T18:25:31.283Z,21.33
2023-05-19T18:27:58.156Z,27.13
2023-05-19T18:30:25.074Z,14.00
2023-05-19T18:32:51.989Z,9.77
2023-05-19T18:35:21.142Z,13.85
2023-05-19T18:37:48.020Z,12.88
2023-05-19T18:40:14.916Z,16.02
2023-05-19T18:42:43.241Z,25.98
2023-05-19T18:45:10.683Z,9.90
2023-05-19T18:47:37.665Z,11.55
2023-05-19T18:50:05.419Z,16.75
2023-05-19T18:52:32.437Z,25.00
2023-05-19T18:55:01.150Z,16.30
2023-05-19T18:57:28.071Z,17.13
2023-05-19T18:59:56.392Z,21.20
2023-05-19T19:02:23.302Z,18.05
2023-05-19T19:04:50.263Z,14.35
2023-05-19T19:07:17.248Z,18.92
2023-05-19T19:09:44.117Z,19.15
2023-05-19T19:12:11.259Z,13.00
2023-05-19T19:14:38.732Z,16.75
2023-05-19T19:17:07.245Z,16.00
2023-05-19T19:19:34.229Z,22.73
2023-05-19T19:22:01.187Z,18.42
2023-05-19T19:24:28.573Z,17.13
2023-05-19T19:26:55.564Z,17.80
2023-05-19T19:29:22.455Z,15.80
2023-05-19T19:31:49.385Z,24.67
2023-05-19T19:34:19.872Z,23.50
2023-05-19T19:36:47.928Z,20.70
2023-05-19T19:39:14.875Z,14.55
2023-05-19T19:41:41.909Z,17.98
2023-05-19T19:44:08.915Z,15.50
2023-05-19T19:46:36.008Z,15.75
2023-05-19T19:49:03.001Z,18.13
2023-05-19T19:51:31.773Z,16.60
2023-05-19T19:53:59.152Z,18.55
2023-05-19T19:56:27.589Z,22.05
2023-05-19T19:58:56.924Z,22.98
2023-05-19T20:01:27.606Z,19.63
2023-05-19T20:03:55.461Z,19.83
2023-05-19T20:06:22.584Z,12.55
2023-05-19T20:08:50.883Z,14.77
2023-05-19T20:11:17.833Z,21.17
2023-05-19T20:13:44.960Z,22.23
2023-05-19T20:16:11.896Z,13.05
2023-05-19T20:18:39.607Z,29.83
2023-05-19T20:21:06.619Z,21.70
2023-05-19T20:23:33.717Z,21.67
2023-05-19T20:26:10.980Z,14.25
2023-05-19T20:28:39.380Z,27.63
2023-05-19T20:31:06.515Z,15.50
2023-05-19T20:33:33.517Z,16.88
2023-05-19T20:36:00.493Z,11.98
2023-05-19T20:38:27.421Z,12.70
2023-05-19T20:40:54.387Z,34.58
2023-05-19T20:43:22.733Z,19.83
2023-05-19T20:45:49.738Z,23.90
2023-05-19T20:48:16.795Z,18.67
2023-05-19T20:50:43.980Z,19.48
2023-05-19T20:53:11.018Z,22.08
2023-05-19T20:55:38.680Z,19.10
2023-05-19T20:58:05.786Z,18.02
2023-05-19T21:00:34.200Z,18.00
2023-05-19T21:03:01.579Z,15.15
2023-05-19T21:05:29.083Z,15.57
2023-05-19T21:07:56.464Z,20.63
2023-05-19T21:10:23.605Z,27.00
2023-05-19T21:12:50.535Z,25.95
2023-05-19T21:15:17.519Z,27.90
2023-05-19T21:17:46.652Z,18.13
2023-05-19T21:20:13.688Z,30.33
2023-05-19T21:22:41.044Z,14.45
2023-05-19T21:25:08.638Z,18.02
2023-05-19T21:27:36.387Z,33.17
2023-05-19T21:30:03.710Z,21.48
2023-05-19T21:32:31.021Z,20.98
2023-05-19T21:35:00.008Z,24.17
2023-05-19T21:37:26.948Z,24.80
2023-05-19T21:39:53.927Z,15.15
2023-05-19T21:42:20.826Z,18.48
2023-05-19T21:44:47.707Z,16.83
2023-05-19T21:47:14.842Z,22.10
2023-05-19T21:49:41.769Z,18.70
2023-05-19T21:52:10.427Z,13.43
2023-05-19T21:54:37.453Z,18.75
2023-05-19T21:57:04.772Z,18.42
2023-05-19T21:59:31.649Z,22.85
2023-05-19T22:01:58.899Z,15.18
2023-05-19T22:04:25.940Z,17.90
2023-05-19T22:06:52.799Z,15.50
2023-05-19T22:09:21.694Z,22.98
2023-05-19T22:11:48.545Z,19.75
2023-05-19T22:14:15.645Z,23.52
2023-05-19T22:16:42.593Z,21.45
2023-05-19T22:19:10.564Z,16.90
2023-05-19T22:21:37.597Z,17.40
2023-05-19T22:24:04.707Z,15.10
2023-05-19T22:26:34.395Z,19.80
2023-05-19T22:29:01.782Z,18.05
2023-05-19T22:31:29.712Z,14.90
2023-05-19T22:33:56.684Z,20.33
2023-05-19T22:36:23.833Z,15.55
2023-05-19T22:38:50.693Z,19.95
2023-05-19T22:41:17.604Z,17.15
2023-05-19T22:43:46.007Z,23.65
2023-05-19T22:46:13.111Z,15.60
2023-05-19T22:48:39.969Z,13.15
2023-05-19T22:51:06.854Z,16.05
2023-05-19T22:53:33.704Z,23.25
2023-05-19T22:56:00.575Z,16.05
2023-05-19T22:58:27.437Z,24.55
2023-05-19T23:00:56.228Z,17.08
2023-05-19T23:03:23.320Z,24.25
2023-05-19T23:05:50.254Z,23.13
2023-05-19T23:08:17.109Z,18.92
2023-05-19T23:10:44.769Z,22.23
2023-05-19T23:13:12.035Z,18.40
2023-05-19T23:15:38.902Z,24.83
2023-05-19T23:18:08.692Z,21.67
2023-05-19T23:20:35.807Z,20.40
2023-05-19T23:23:02.780Z,23.48
2023-05-19T23:25:29.759Z,23.75
2023-05-19T23:27:56.656Z,17.23
2023-05-19T23:30:23.563Z,23.50
2023-05-19T23:32:50.493Z,15.52
2023-05-19T23:35:20.086Z,25.15
2023-05-19T23:37:47.033Z,17.90
2023-05-19T23:40:14.435Z,21.90
2023-05-19T23:42:41.395Z,22.23
2023-05-19T23:45:08.991Z,20.67
2023-05-19T23:47:35.968Z,23.05
2023-05-19T23:50:03.019Z,20.15
2023-05-19T23:52:32.804Z,25.95
2023-05-19T23:54:59.789Z,33.47
2023-05-19T23:57:26.633Z,30.35
2023-05-19T23:59:53.505Z,35.78
